Time,TemperatureF,DewpointF,PressureIn,WindDirection,WindDirectionDegrees,WindSpeedMPH,WindSpeedGustMPH,Humidity,HourlyPrecipIn,Conditions,Clouds,dailyrainin,SoftwareType,DateUTC
2013-01-11 00:15:00,34.5,31.8,29.69,WSW,248,0.4,7.0,90,0.00,,,-99.99,open3600,2013-01-10 23:15:00,
2013-01-11 00:31:00,34.2,31.5,29.69,WNW,292,0.0,0.0,90,0.00,,,-99.99,open3600,2013-01-10 23:31:00,
2013-01-11 00:47:00,33.6,31.1,29.70,West,270,0.5,0.0,90,0.00,,,-99.99,open3600,2013-01-10 23:47:00,
2013-01-11 01:04:00,33.1,30.6,29.70,NNW,338,0.0,0.0,90,0.00,,,-99.99,open3600,2013-01-11 00:04:00,
2013-01-11 01:19:00,32.9,30.4,29.70,NW,315,0.0,0.0,90,0.00,,,-99.99,open3600,2013-01-11 00:19:00,
2013-01-11 01:53:00,32.5,30.2,29.70,NW,315,0.0,0.0,91,0.00,,,-99.99,open3600,2013-01-11 00:53:00,
2013-01-11 02:08:00,32.4,30.0,29.71,NNW,338,0.0,-999.0,91,-99.99,,,-99.99,open3600,2013-01-11 01:08:00,
2013-01-11 02:24:00,32.2,29.7,29.70,NNW,338,0.0,-999.0,90,-99.99,,,-99.99,open3600,2013-01-11 01:24:00,
2013-01-11 02:31:00,31.8,28.9,29.71,NW,315,0.0,-999.0,90,-99.99,,,-99.99,open3600,2013-01-11 01:31:00,
2013-01-11 03:14:00,30.9,27.7,29.71,NNW,338,1.1,9.0,89,-99.99,,,-99.99,open3600,2013-01-11 02:14:00,
2013-01-11 03:32:00,30.6,27.3,29.71,North,0,0.7,0.0,89,-99.99,,,-99.99,open3600,2013-01-11 02:32:00,
2013-01-11 03:47:00,30.0,26.6,29.72,WNW,292,1.9,13.0,88,-99.99,,,-99.99,open3600,2013-01-11 02:47:00,
2013-01-11 04:19:00,29.1,24.8,29.72,North,0,4.3,17.0,85,0.00,,,-99.99,open3600,2013-01-11 03:19:00,
2013-01-11 04:34:00,28.9,24.6,29.73,West,270,1.1,0.0,85,0.00,,,-99.99,open3600,2013-01-11 03:34:00,
2013-01-11 04:35:00,28.9,24.6,29.73,West,270,1.1,0.0,85,0.00,,,-99.99,open3600,2013-01-11 03:35:00,
2013-01-11 05:25:00,28.2,23.5,29.74,WNW,292,2.0,10.0,84,0.00,,,-99.99,open3600,2013-01-11 04:25:00,
2013-01-11 05:40:00,27.9,22.8,29.74,WSW,248,0.9,0.0,83,0.00,,,-99.99,open3600,2013-01-11 04:40:00,
2013-01-11 05:56:00,27.5,22.1,29.75,North,0,1.8,10.0,82,0.00,,,-99.99,open3600,2013-01-11 04:56:00,
2013-01-11 06:11:00,27.3,21.9,29.75,NW,315,1.4,11.0,82,0.00,,,-99.99,open3600,2013-01-11 05:11:00,
2013-01-11 06:29:00,27.1,22.1,29.75,NNW,338,1.2,18.0,83,0.00,,,-99.99,open3600,2013-01-11 05:29:00,
2013-01-11 06:44:00,26.8,21.7,29.75,West,270,1.5,7.0,83,0.00,,,-99.99,open3600,2013-01-11 05:44:00,
2013-01-11 07:00:00,26.4,21.4,29.77,WNW,292,2.0,0.0,83,0.00,,,-99.99,open3600,2013-01-11 06:00:00,
2013-01-11 07:16:00,26.4,21.4,29.77,WNW,292,1.1,0.0,83,0.00,,,-99.99,open3600,2013-01-11 06:16:00,
2013-01-11 07:31:00,26.4,21.4,29.78,West,270,1.6,0.0,83,0.00,,,-99.99,open3600,2013-01-11 06:31:00,
2013-01-11 07:47:00,26.4,21.4,29.79,NW,315,2.5,12.0,83,0.00,,,-99.99,open3600,2013-01-11 06:47:00,
2013-01-11 08:02:00,26.8,21.7,29.80,West,270,2.6,8.0,83,0.00,,,-99.99,open3600,2013-01-11 07:02:00,
2013-01-11 08:18:00,26.8,22.1,29.81,NW,315,1.8,11.0,84,0.00,,,-99.99,open3600,2013-01-11 07:18:00,
2013-01-11 08:33:00,26.8,22.5,29.82,NNW,338,2.0,12.0,85,0.00,,,-99.99,open3600,2013-01-11 07:33:00,
2013-01-11 08:49:00,26.6,22.6,29.82,NW,315,0.4,13.0,86,0.00,,,-99.99,open3600,2013-01-11 07:49:00,
2013-01-11 09:05:00,26.8,23.0,29.83,WNW,292,0.8,0.0,87,0.00,,,-99.99,open3600,2013-01-11 08:05:00,
2013-01-11 09:20:00,26.4,22.1,29.83,West,270,2.3,10.0,85,0.00,,,-99.99,open3600,2013-01-11 08:20:00,
2013-01-11 09:36:00,26.2,21.9,29.84,NW,315,1.5,9.0,85,0.00,,,-99.99,open3600,2013-01-11 08:36:00,
2013-01-11 09:51:00,26.2,21.6,29.84,NNW,338,1.4,0.0,84,0.00,,,-99.99,open3600,2013-01-11 08:51:00,
2013-01-11 10:24:00,26.2,20.7,29.85,NNW,338,5.7,18.0,81,0.00,,,-99.99,open3600,2013-01-11 09:24:00,
2013-01-11 10:40:00,26.2,20.7,29.85,WNW,292,3.5,16.0,81,0.00,,,-99.99,open3600,2013-01-11 09:40:00,
2013-01-11 10:56:00,26.4,20.8,29.86,West,270,1.9,17.0,81,0.00,,,-99.99,open3600,2013-01-11 09:56:00,
2013-01-11 11:11:00,26.4,20.8,29.85,West,270,1.0,10.0,81,0.00,,,-99.99,open3600,2013-01-11 10:11:00,
2013-01-11 11:27:00,26.8,21.2,29.85,NNW,338,1.8,12.0,81,0.00,,,-99.99,open3600,2013-01-11 10:27:00,
2013-01-11 11:42:00,27.3,21.4,29.85,North,0,3.6,13.0,80,0.00,,,-99.99,open3600,2013-01-11 10:42:00,
2013-01-11 11:58:00,27.5,21.9,29.86,WNW,292,1.7,13.0,81,0.00,,,-99.99,open3600,2013-01-11 10:58:00,
2013-01-11 12:14:00,27.7,21.7,29.86,NNW,338,0.7,0.0,80,0.00,,,-99.99,open3600,2013-01-11 11:14:00,
2013-01-11 12:29:00,27.9,21.2,29.86,WNW,292,1.9,14.0,78,0.00,,,-99.99,open3600,2013-01-11 11:29:00,
2013-01-11 12:45:00,28.0,21.0,29.86,NNW,338,3.9,13.0,77,0.00,,,-99.99,open3600,2013-01-11 11:45:00,
2013-01-11 13:02:00,28.0,21.0,29.87,West,270,2.8,17.0,77,0.00,,,-99.99,open3600,2013-01-11 12:02:00,
2013-01-11 13:19:00,28.0,21.4,29.87,NW,315,3.8,18.0,78,0.00,,,-99.99,open3600,2013-01-11 12:19:00,
2013-01-11 13:35:00,28.0,22.1,29.88,NW,315,1.8,12.0,80,0.00,,,-99.99,open3600,2013-01-11 12:35:00,
2013-01-11 13:51:00,27.7,22.3,29.88,NNW,338,1.3,9.0,82,0.00,,,-99.99,open3600,2013-01-11 12:51:00,
2013-01-11 14:06:00,27.3,22.6,29.89,NW,315,3.5,14.0,84,0.00,,,-99.99,open3600,2013-01-11 13:06:00,
2013-01-11 14:22:00,27.3,22.3,29.89,NNW,338,1.2,10.0,83,0.00,,,-99.99,open3600,2013-01-11 13:22:00,
2013-01-11 14:37:00,27.5,22.1,29.90,NW,315,0.6,0.0,82,0.00,,,-99.99,open3600,2013-01-11 13:37:00,
2013-01-11 14:53:00,27.3,21.7,29.91,NW,315,1.2,0.0,81,0.00,,,-99.99,open3600,2013-01-11 13:53:00,
2013-01-11 15:09:00,27.0,21.9,29.91,NW,315,3.0,14.0,83,0.00,,,-99.99,open3600,2013-01-11 14:09:00,
2013-01-11 15:26:00,27.0,21.6,29.92,NNW,338,1.4,13.0,82,0.00,,,-99.99,open3600,2013-01-11 14:26:00,
2013-01-11 15:42:00,26.8,21.2,29.92,North,0,0.8,10.0,81,0.00,,,-99.99,open3600,2013-01-11 14:42:00,
2013-01-11 15:57:00,26.8,20.8,29.93,WNW,292,1.0,0.0,80,0.00,,,-99.99,open3600,2013-01-11 14:57:00,
2013-01-11 16:13:00,26.8,21.4,29.93,NW,315,0.5,10.0,82,0.00,,,-99.99,open3600,2013-01-11 15:13:00,
2013-01-11 16:29:00,26.8,21.7,29.94,West,270,0.0,0.0,83,0.00,,,-99.99,open3600,2013-01-11 15:29:00,
2013-01-11 16:44:00,26.4,21.4,29.94,WNW,292,0.0,0.0,83,0.00,,,-99.99,open3600,2013-01-11 15:44:00,
2013-01-11 17:00:00,26.2,21.2,29.94,WNW,292,0.0,0.0,83,0.00,,,-99.99,open3600,2013-01-11 16:00:00,
2013-01-11 17:15:00,26.4,21.2,29.95,West,270,0.0,0.0,82,0.00,,,-99.99,open3600,2013-01-11 16:15:00,
2013-01-11 17:31:00,26.2,21.0,29.95,WNW,292,0.2,0.0,82,0.00,,,-99.99,open3600,2013-01-11 16:31:00,
2013-01-11 17:46:00,26.2,21.0,29.95,WSW,248,0.0,0.0,82,0.00,,,-99.99,open3600,2013-01-11 16:46:00,
2013-01-11 18:02:00,26.2,20.7,29.95,WNW,292,0.0,0.0,81,0.00,,,-99.99,open3600,2013-01-11 17:02:00,
2013-01-11 18:17:00,26.2,20.7,29.96,SW,225,0.4,0.0,81,0.00,,,-99.99,open3600,2013-01-11 17:17:00,
2013-01-11 18:33:00,26.2,20.7,29.96,NW,315,1.4,11.0,81,0.00,,,-99.99,open3600,2013-01-11 17:33:00,
2013-01-11 18:48:00,25.9,19.9,29.96,West,270,0.4,0.0,80,0.00,,,-99.99,open3600,2013-01-11 17:48:00,
2013-01-11 19:05:00,25.7,19.4,29.96,WNW,292,1.5,0.0,79,0.00,,,-99.99,open3600,2013-01-11 18:05:00,
2013-01-11 19:20:00,25.5,19.6,29.96,West,270,0.0,0.0,80,0.00,,,-99.99,open3600,2013-01-11 18:20:00,
2013-01-11 19:36:00,25.3,19.4,29.96,West,270,0.0,0.0,80,0.00,,,-99.99,open3600,2013-01-11 18:36:00,
2013-01-11 19:53:00,25.3,19.4,29.97,West,270,0.0,0.0,80,0.00,,,-99.99,open3600,2013-01-11 18:53:00,
2013-01-11 20:09:00,25.3,19.4,29.97,WSW,248,0.0,0.0,80,0.00,,,-99.99,open3600,2013-01-11 19:09:00,
2013-01-11 20:25:00,25.0,19.0,29.97,WNW,292,0.3,0.0,80,0.00,,,-99.99,open3600,2013-01-11 19:25:00,
2013-01-11 20:40:00,25.0,19.4,29.97,WSW,248,0.0,0.0,81,0.00,,,-99.99,open3600,2013-01-11 19:40:00,
2013-01-11 20:56:00,24.6,18.7,29.97,WSW,248,0.0,0.0,80,0.00,,,-99.99,open3600,2013-01-11 19:56:00,
2013-01-11 21:11:00,24.4,18.5,29.97,WSW,248,0.0,0.0,80,0.00,,,-99.99,open3600,2013-01-11 20:11:00,
2013-01-11 21:27:00,24.3,18.3,29.98,WSW,248,0.0,0.0,80,0.00,,,-99.99,open3600,2013-01-11 20:27:00,
2013-01-11 21:42:00,24.1,18.5,29.97,WSW,248,0.0,0.0,81,0.00,,,-99.99,open3600,2013-01-11 20:42:00,
2013-01-11 21:59:00,24.1,18.5,29.98,West,270,0.0,0.0,81,0.00,,,-99.99,open3600,2013-01-11 20:59:00,
2013-01-11 22:15:00,24.1,18.9,29.98,WSW,248,0.0,0.0,82,0.00,,,-99.99,open3600,2013-01-11 21:15:00,
2013-01-11 22:31:00,24.1,18.9,29.98,WSW,248,0.0,0.0,82,0.00,,,-99.99,open3600,2013-01-11 21:31:00,
2013-01-11 22:46:00,23.9,19.0,29.98,WSW,248,0.0,0.0,83,0.00,,,-99.99,open3600,2013-01-11 21:46:00,
2013-01-11 23:02:00,24.1,19.2,29.98,WSW,248,0.0,0.0,83,0.00,,,-99.99,open3600,2013-01-11 22:02:00,
2013-01-11 23:17:00,24.3,19.4,29.97,WSW,248,0.0,0.0,83,0.00,,,-99.99,open3600,2013-01-11 22:17:00,
2013-01-11 23:33:00,24.4,19.6,29.97,WSW,248,0.0,0.0,83,0.00,,,-99.99,open3600,2013-01-11 22:33:00,
2013-01-11 23:48:00,24.6,19.9,29.97,WSW,248,0.0,0.0,84,0.00,,,-99.99,open3600,2013-01-11 22:48:00,